WSSS

Singapore Changi International Airport

Singapore, Singapore
METAR WSSS 170700Z 33003KT 290V060 9999 VCTS FEW015 FEW016CB FEW018TCU SCT150 29/24 Q1008 TEMPO TL0745 4000 -TSRA
Observed Flight Rules
Jan-17 @ 07:00 UTC (37 minutes ago) Visual Flight Rules
Wind Visibility Clouds Conditions
330° at 3 knots 10,000+ meters
  • Few at 1,500' AGL
  • Few at 1,600' AGL
  • Few at 1,800' AGL
  • Scattered at 15,000' AGL
  • Area Thunderstorm
Temperatures Readings
Current 29°C / 84°F
Dewpoint 24°C / 75°F
Humidity 74%
Altimeter 29.76" Hg
Pressure 1007.92 hPa
Elevation 16
METAR WSSS 170700Z 33003KT 290V060 9999 VCTS FEW015 FEW016CB FEW018TCU SCT150 29/24 Q1008 TEMPO TL0745 4000 -TSRA
Observed Flight Rules
Jan-17 @ 07:00 UTC
(37 minutes ago)
VFR
Wind Visibility
330° at 3 knots 10,000+ meters
Clouds
  • Few at 1,500' AGL
  • Few at 1,600' AGL
  • Few at 1,800' AGL
  • Scattered at 15,000' AGL
Conditions
  • Area Thunderstorm
Temperature Dewpoint
29°C / 84°F 24°C / 75°F
Humidity Altimeter Pressure
74% 29.76" Hg 1007.92 hPa